createdAt,value
2023-02-19T00:03:26.099Z,7.32
2023-02-19T00:08:31.298Z,4.70
2023-02-19T00:13:38.027Z,4.68
2023-02-19T00:18:41.064Z,9.85
2023-02-19T00:23:43.614Z,8.10
2023-02-19T00:28:47.410Z,9.13
2023-02-19T00:33:52.542Z,8.32
2023-02-19T00:38:55.098Z,9.30
2023-02-19T00:43:59.897Z,7.50
2023-02-19T00:49:03.143Z,9.77
2023-02-19T00:54:06.464Z,8.45
2023-02-19T00:59:09.016Z,11.02
2023-02-19T01:04:11.915Z,7.55
2023-02-19T01:09:14.844Z,12.60
2023-02-19T01:14:17.299Z,14.57
2023-02-19T01:19:20.602Z,17.10
2023-02-19T01:24:23.031Z,10.40
2023-02-19T01:29:25.475Z,12.73
2023-02-19T01:34:30.395Z,14.25
2023-02-19T01:39:32.911Z,13.50
2023-02-19T01:44:35.199Z,12.77
2023-02-19T01:49:49.009Z,11.82
2023-02-19T01:54:53.476Z,8.60
2023-02-19T02:00:02.434Z,12.00
2023-02-19T02:05:50.918Z,8.50
2023-02-19T02:10:54.256Z,7.32
2023-02-19T02:16:02.606Z,6.63
2023-02-19T02:21:36.080Z,8.85
2023-02-19T02:26:51.235Z,7.03
2023-02-19T02:32:08.102Z,8.90
2023-02-19T02:37:12.510Z,8.10
2023-02-19T02:42:30.323Z,9.82
2023-02-19T02:47:48.225Z,9.52
2023-02-19T02:58:15.529Z,8.68
2023-02-19T03:03:22.576Z,8.82
2023-02-19T03:08:31.552Z,7.95
2023-02-19T03:13:57.600Z,7.93
2023-02-19T03:19:19.483Z,7.15
2023-02-19T03:24:50.230Z,9.82
2023-02-19T03:29:57.378Z,9.63
2023-02-19T03:35:10.233Z,10.52
2023-02-19T03:40:14.142Z,10.50
2023-02-19T03:45:57.184Z,9.93
2023-02-19T03:51:06.969Z,11.07
2023-02-19T03:56:31.228Z,13.13
2023-02-19T04:01:46.319Z,13.00
2023-02-19T04:06:55.100Z,13.68
2023-02-19T04:11:58.894Z,12.27
2023-02-19T04:17:05.634Z,12.93
2023-02-19T04:22:10.005Z,11.45
2023-02-19T04:27:12.786Z,11.50
2023-02-19T04:32:15.426Z,9.50
2023-02-19T04:37:17.878Z,10.52
2023-02-19T04:42:20.191Z,13.30
2023-02-19T04:47:22.714Z,9.48
2023-02-19T04:52:25.097Z,12.82
2023-02-19T04:57:27.809Z,9.10
2023-02-19T05:02:30.181Z,11.13
2023-02-19T05:07:32.797Z,10.68
2023-02-19T05:12:35.199Z,9.80
2023-02-19T05:17:38.092Z,9.82
2023-02-19T05:22:40.432Z,10.50
2023-02-19T05:27:42.913Z,10.80
2023-02-19T05:32:45.303Z,11.15
2023-02-19T05:37:47.732Z,11.77
2023-02-19T05:42:50.160Z,11.40
2023-02-19T05:47:52.540Z,13.50
2023-02-19T05:52:54.904Z,10.57
2023-02-19T05:57:57.241Z,12.13
2023-02-19T06:02:59.772Z,13.05
2023-02-19T06:08:02.178Z,15.57
2023-02-19T06:13:04.600Z,16.00
2023-02-19T06:18:07.012Z,15.65
2023-02-19T06:23:09.440Z,14.73
2023-02-19T06:28:11.794Z,17.05
2023-02-19T06:33:15.686Z,17.13
2023-02-19T06:38:18.147Z,15.60
2023-02-19T06:43:20.533Z,19.13
2023-02-19T06:48:22.960Z,19.38
2023-02-19T06:53:25.861Z,19.25
2023-02-19T06:58:28.611Z,21.58
2023-02-19T07:03:31.121Z,17.67
2023-02-19T07:08:33.653Z,20.88
2023-02-19T07:13:36.074Z,18.48
2023-02-19T07:18:39.735Z,19.80
2023-02-19T07:23:43.168Z,20.10
2023-02-19T07:28:47.054Z,16.10
2023-02-19T07:33:50.406Z,14.65
2023-02-19T07:38:57.328Z,17.48
2023-02-19T07:43:59.787Z,15.57
2023-02-19T07:49:02.186Z,16.60
2023-02-19T07:54:04.652Z,16.30
2023-02-19T07:59:07.058Z,15.20
2023-02-19T08:04:10.738Z,13.82
2023-02-19T08:09:13.126Z,13.27
2023-02-19T08:14:15.605Z,13.50
2023-02-19T08:19:18.113Z,15.48
2023-02-19T08:24:20.527Z,12.23
2023-02-19T08:29:23.083Z,16.90
2023-02-19T08:34:25.558Z,17.08
2023-02-19T08:39:28.024Z,15.77
2023-02-19T08:44:30.401Z,13.50
2023-02-19T08:49:32.824Z,17.08
2023-02-19T08:54:37.226Z,15.43
2023-02-19T08:59:39.705Z,14.02
2023-02-19T09:04:42.143Z,13.38
2023-02-19T09:09:44.612Z,13.45
2023-02-19T09:14:47.260Z,9.90
2023-02-19T09:19:50.885Z,11.07
2023-02-19T09:24:53.506Z,12.27
2023-02-19T09:29:55.998Z,12.13
2023-02-19T09:34:58.473Z,9.10
2023-02-19T09:40:00.895Z,13.30
2023-02-19T09:45:05.402Z,11.10
2023-02-19T09:50:10.376Z,9.80
2023-02-19T09:55:36.631Z,11.30
2023-02-19T10:00:40.274Z,10.25
2023-02-19T10:05:43.278Z,10.55
2023-02-19T10:10:45.821Z,7.78
2023-02-19T10:15:52.195Z,8.20
2023-02-19T10:20:56.288Z,8.35
2023-02-19T10:26:00.474Z,9.40
2023-02-19T10:31:07.700Z,9.45
2023-02-19T10:36:41.966Z,6.53
2023-02-19T10:41:44.551Z,9.00
2023-02-19T10:46:50.680Z,8.75
2023-02-19T10:51:55.841Z,6.45
2023-02-19T10:57:21.392Z,6.50
2023-02-19T11:02:24.503Z,8.02
2023-02-19T11:07:26.918Z,8.18
2023-02-19T11:12:33.764Z,8.48
2023-02-19T11:17:36.830Z,11.20
2023-02-19T11:22:42.339Z,8.88
2023-02-19T11:28:05.151Z,8.68
2023-02-19T11:33:16.734Z,11.73
2023-02-19T11:38:21.102Z,11.23
2023-02-19T11:43:50.126Z,11.93
2023-02-19T11:48:56.428Z,9.57
2023-02-19T11:54:05.168Z,11.10
2023-02-19T11:59:36.662Z,9.55
2023-02-19T12:04:48.016Z,11.27
2023-02-19T12:10:28.898Z,10.07
2023-02-19T12:15:50.112Z,9.93
2023-02-19T12:21:26.317Z,10.82
2023-02-19T12:26:56.590Z,14.38
2023-02-19T12:32:27.363Z,8.35
2023-02-19T12:37:45.525Z,10.00
2023-02-19T12:43:20.586Z,10.52
2023-02-19T12:48:53.701Z,9.20
2023-02-19T12:54:06.502Z,13.30
2023-02-19T12:59:36.986Z,11.88
2023-02-19T13:09:52.273Z,11.48
2023-02-19T13:15:00.156Z,10.43
2023-02-19T13:20:14.344Z,10.23
2023-02-19T13:25:19.520Z,14.70
2023-02-19T13:35:42.190Z,12.65
2023-02-19T13:40:56.085Z,11.15
2023-02-19T13:46:03.006Z,10.65
2023-02-19T13:51:26.452Z,11.25
2023-02-19T13:56:31.869Z,9.43
2023-02-19T14:01:56.195Z,9.93
2023-02-19T14:07:04.981Z,11.80
2023-02-19T14:12:15.455Z,11.52
2023-02-19T14:17:29.059Z,10.73
2023-02-19T14:22:51.603Z,11.13
2023-02-19T14:28:16.069Z,11.85
2023-02-19T14:33:22.785Z,9.27
2023-02-19T14:38:27.731Z,13.48
2023-02-19T14:43:31.665Z,11.48
2023-02-19T14:48:39.983Z,9.13
2023-02-19T14:53:45.172Z,11.82
2023-02-19T15:04:25.945Z,10.75
2023-02-19T15:09:35.717Z,9.43
2023-02-19T15:14:40.466Z,12.23
2023-02-19T15:19:44.375Z,11.27
2023-02-19T15:24:48.673Z,10.55
2023-02-19T15:29:53.857Z,10.95
2023-02-19T15:34:59.165Z,10.10
2023-02-19T15:40:07.897Z,6.22
2023-02-19T15:45:16.070Z,12.07
2023-02-19T15:50:31.893Z,11.23
2023-02-19T15:55:40.283Z,10.77
2023-02-19T16:00:52.129Z,9.05
2023-02-19T16:11:23.373Z,10.32
2023-02-19T16:16:31.524Z,12.75
2023-02-19T16:21:34.308Z,13.95
2023-02-19T16:26:44.759Z,11.38
2023-02-19T16:31:50.988Z,11.18
2023-02-19T16:36:53.496Z,14.05
2023-02-19T16:42:12.862Z,11.38
2023-02-19T16:47:21.045Z,11.93
2023-02-19T16:52:23.710Z,13.45
2023-02-19T16:57:26.183Z,12.27
2023-02-19T17:02:28.622Z,11.70
2023-02-19T17:07:31.052Z,13.77
2023-02-19T17:12:33.494Z,17.00
2023-02-19T17:17:36.156Z,13.98
2023-02-19T17:22:38.967Z,13.30
2023-02-19T17:27:41.653Z,16.42
2023-02-19T17:32:44.759Z,19.25
2023-02-19T17:37:47.272Z,13.07
2023-02-19T17:42:50.291Z,12.55
2023-02-19T17:47:53.417Z,11.88
2023-02-19T17:52:56.005Z,14.57
2023-02-19T17:57:58.454Z,15.73
2023-02-19T18:03:01.030Z,15.27
2023-02-19T18:08:03.768Z,14.98
2023-02-19T18:13:06.399Z,15.73
2023-02-19T18:18:10.124Z,15.63
2023-02-19T18:23:12.615Z,17.65
2023-02-19T18:28:15.696Z,11.50
2023-02-19T18:33:18.288Z,13.48
2023-02-19T18:38:21.251Z,7.65
2023-02-19T18:43:23.851Z,15.15
2023-02-19T18:48:26.251Z,14.70
2023-02-19T18:53:30.421Z,15.25
2023-02-19T18:58:33.715Z,16.13
2023-02-19T19:03:36.180Z,21.67
2023-02-19T19:08:38.681Z,14.70
2023-02-19T19:13:41.253Z,14.95
2023-02-19T19:18:43.624Z,14.15
2023-02-19T19:23:46.582Z,14.85
2023-02-19T19:28:48.977Z,12.50
2023-02-19T19:33:52.200Z,13.10
2023-02-19T19:38:54.663Z,12.43
2023-02-19T19:43:57.566Z,11.10
2023-02-19T19:49:00.117Z,14.05
2023-02-19T19:54:04.447Z,14.95
2023-02-19T19:59:06.899Z,15.73
2023-02-19T20:04:09.269Z,12.85
2023-02-19T20:09:11.973Z,14.80
2023-02-19T20:14:15.264Z,16.45
2023-02-19T20:19:19.861Z,13.82
2023-02-19T20:24:29.090Z,18.75
2023-02-19T20:29:33.730Z,12.68
2023-02-19T20:34:36.780Z,16.35
2023-02-19T20:39:39.295Z,17.33
2023-02-19T20:44:42.930Z,17.52
2023-02-19T20:49:46.860Z,15.35
2023-02-19T20:54:49.271Z,17.17
2023-02-19T20:59:51.770Z,14.30
2023-02-19T21:04:54.239Z,15.15
2023-02-19T21:09:56.674Z,20.98
2023-02-19T21:14:59.076Z,16.17
2023-02-19T21:20:01.482Z,14.13
2023-02-19T21:25:05.610Z,19.90
2023-02-19T21:30:08.616Z,15.63
2023-02-19T21:35:11.272Z,15.38
2023-02-19T21:40:13.964Z,19.52
2023-02-19T21:45:16.479Z,16.75
2023-02-19T21:50:20.300Z,14.55
2023-02-19T21:55:22.661Z,20.05
2023-02-19T22:00:25.189Z,16.30
2023-02-19T22:05:27.618Z,16.38
2023-02-19T22:10:30.301Z,18.35
2023-02-19T22:15:32.645Z,17.55
2023-02-19T22:20:37.520Z,16.98
2023-02-19T22:25:39.909Z,17.85
2023-02-19T22:30:43.209Z,10.00
2023-02-19T22:35:45.602Z,20.45
2023-02-19T22:40:47.975Z,22.80
2023-02-19T22:45:50.386Z,19.27
2023-02-19T22:50:52.965Z,21.83
2023-02-19T22:55:55.466Z,21.40
2023-02-19T23:00:58.003Z,19.13
2023-02-19T23:06:04.050Z,19.60
2023-02-19T23:11:06.477Z,17.50
2023-02-19T23:16:08.909Z,17.90
2023-02-19T23:21:11.568Z,22.00
2023-02-19T23:26:16.089Z,17.20
2023-02-19T23:31:19.081Z,18.23
2023-02-19T23:36:24.088Z,20.23
2023-02-19T23:41:26.694Z,18.05
2023-02-19T23:46:29.341Z,22.83
2023-02-19T23:51:31.778Z,19.83
2023-02-19T23:56:34.834Z,21.95
